createdAt,value
2023-04-25T04:19:17.654Z,99100.44
2023-04-25T04:22:32.063Z,99100.44
2023-04-25T04:25:46.333Z,99099.25
2023-04-25T04:29:00.552Z,99100.34
2023-04-25T04:32:14.716Z,99106.66
2023-04-25T04:35:30.448Z,99101.97
2023-04-25T04:38:45.927Z,99106.03
2023-04-25T04:42:00.221Z,99104.72
2023-04-25T04:45:14.552Z,99104.53
2023-04-25T04:48:29.459Z,99120.56
2023-04-25T04:51:46.498Z,99115.50
2023-04-25T04:55:00.754Z,99121.97
2023-04-25T04:58:15.649Z,99123.44
2023-04-25T05:01:31.413Z,99120.25
2023-04-25T05:04:46.329Z,99121.50
2023-04-25T05:08:06.452Z,99123.59
2023-04-25T05:11:36.324Z,99123.78
2023-04-25T05:14:54.450Z,99133.22
2023-04-25T05:18:08.695Z,99115.22
2023-04-25T05:21:23.223Z,99117.13
2023-04-25T05:24:40.624Z,99119.69
2023-04-25T05:27:59.638Z,99118.22
2023-04-25T05:31:20.775Z,99119.06
2023-04-25T05:34:35.576Z,99122.69
2023-04-25T05:38:09.122Z,99126.00
2023-04-25T05:41:57.242Z,99123.87
2023-04-25T05:45:20.400Z,99113.12
2023-04-25T05:48:36.798Z,99120.81
2023-04-25T05:52:03.203Z,99130.50
2023-04-25T05:55:26.019Z,99130.19
2023-04-25T05:59:11.229Z,99129.12
2023-04-25T06:02:47.380Z,99129.59
2023-04-25T06:06:06.245Z,99133.06
2023-04-25T06:09:22.027Z,99135.44
2023-04-25T06:12:48.944Z,99131.69
2023-04-25T06:16:41.384Z,99138.78
2023-04-25T06:19:59.176Z,99150.66
2023-04-25T06:23:18.353Z,99150.06
2023-04-25T06:26:44.189Z,99146.22
2023-04-25T06:30:15.809Z,99151.81
2023-04-25T06:33:57.265Z,99156.28
2023-04-25T06:37:20.950Z,99158.59
2023-04-25T06:40:35.775Z,99164.72
2023-04-25T06:43:50.245Z,99166.47
2023-04-25T06:47:04.528Z,99160.28
2023-04-25T06:50:36.736Z,99162.47
2023-04-25T06:54:22.883Z,99162.84
2023-04-25T07:01:32.683Z,99161.00
2023-04-25T07:08:23.784Z,99167.19
2023-04-25T07:11:40.468Z,99173.13
2023-04-25T07:15:10.151Z,99165.63
2023-04-25T07:18:40.065Z,99164.97
2023-04-25T07:22:15.086Z,99171.59
2023-04-25T07:25:33.815Z,99164.66
2023-04-25T07:28:59.406Z,99167.88
2023-04-25T07:32:35.452Z,99164.81
2023-04-25T07:40:41.680Z,99172.28
2023-04-25T07:44:34.995Z,99171.69
2023-04-25T07:48:20.975Z,99177.78
2023-04-25T07:51:36.549Z,99170.91
2023-04-25T07:55:02.177Z,99173.00
2023-04-25T07:58:28.708Z,99172.19
2023-04-25T08:02:11.904Z,99170.94
2023-04-25T08:05:43.230Z,99163.84
2023-04-25T08:09:20.969Z,99166.09
2023-04-25T08:12:53.986Z,99170.50
2023-04-25T08:16:26.968Z,99171.53
2023-04-25T08:19:49.748Z,99170.09
2023-04-25T08:23:08.529Z,99168.88
2023-04-25T08:26:35.209Z,99177.41
2023-04-25T08:30:02.572Z,99178.69
2023-04-25T08:33:19.330Z,99174.53
2023-04-25T08:36:57.137Z,99169.28
2023-04-25T08:40:35.446Z,99172.47
2023-04-25T08:43:56.290Z,99171.00
2023-04-25T08:47:19.873Z,99167.31
2023-04-25T08:50:54.715Z,99169.38
2023-04-25T08:58:12.314Z,99179.03
2023-04-25T09:01:30.411Z,99180.41
2023-04-25T09:08:51.348Z,99172.59
2023-04-25T09:12:14.295Z,99175.28
2023-04-25T09:16:09.578Z,99180.91
2023-04-25T09:19:48.341Z,99182.56
2023-04-25T09:23:15.025Z,99188.66
2023-04-25T09:26:51.181Z,99181.91
2023-04-25T09:30:36.371Z,99180.88
2023-04-25T09:34:06.386Z,99177.16
2023-04-25T09:37:33.750Z,99178.06
2023-04-25T09:40:52.864Z,99182.66
2023-04-25T09:44:08.103Z,99186.63
2023-04-25T09:47:28.845Z,99182.00
2023-04-25T09:51:07.009Z,99184.91
2023-04-25T09:58:32.709Z,99172.78
2023-04-25T10:02:49.352Z,99174.06
2023-04-25T10:06:28.834Z,99169.47
2023-04-25T10:09:44.033Z,99171.88
2023-04-25T10:13:12.083Z,99162.91
2023-04-25T10:16:58.345Z,99166.41
2023-04-25T10:20:54.394Z,99160.94
2023-04-25T10:27:56.797Z,99155.03
2023-04-25T10:31:26.076Z,99153.63
2023-04-25T10:35:00.277Z,99157.31
2023-04-25T10:38:18.501Z,99148.41
2023-04-25T10:42:19.570Z,99167.84
2023-04-25T10:46:04.584Z,99166.91
2023-04-25T10:49:50.286Z,99174.53
2023-04-25T10:53:19.046Z,99169.66
2023-04-25T10:56:36.860Z,99174.50
2023-04-25T11:00:17.333Z,99184.25
2023-04-25T11:03:40.671Z,99183.84
2023-04-25T11:07:17.058Z,99188.91
2023-04-25T11:10:36.832Z,99199.16
2023-04-25T11:14:18.730Z,99198.50
2023-04-25T11:21:56.193Z,99194.94
2023-04-25T11:25:24.311Z,99196.88
2023-04-25T11:28:38.858Z,99200.78
2023-04-25T11:31:59.884Z,99205.50
2023-04-25T11:35:53.356Z,99206.66
2023-04-25T11:39:32.815Z,99215.69
2023-04-25T11:42:50.056Z,99210.97
2023-04-25T11:46:12.573Z,99212.91
2023-04-25T11:49:29.912Z,99210.97
2023-04-25T11:53:09.477Z,99218.59
2023-04-25T11:56:45.011Z,99223.94
2023-04-25T12:00:33.462Z,99228.25
2023-04-25T12:04:12.324Z,99216.78
2023-04-25T12:08:04.290Z,99231.87
2023-04-25T12:11:43.167Z,99225.16
2023-04-25T12:15:05.143Z,99232.19
2023-04-25T12:18:30.385Z,99227.16
2023-04-25T12:22:13.778Z,99234.88
2023-04-25T12:26:01.427Z,99239.56
2023-04-25T12:33:16.092Z,99238.47
2023-04-25T12:40:19.287Z,99240.66
2023-04-25T12:43:35.314Z,99231.22
2023-04-25T12:47:01.381Z,99227.16
2023-04-25T12:50:15.509Z,99226.94
2023-04-25T12:53:30.244Z,99226.28
2023-04-25T12:57:03.007Z,99214.13
2023-04-25T13:00:28.543Z,99225.31
2023-04-25T13:04:28.205Z,99218.13
2023-04-25T13:07:52.374Z,99210.44
2023-04-25T13:11:08.198Z,99206.13
2023-04-25T13:14:22.778Z,99200.00
2023-04-25T13:17:47.425Z,99201.56
2023-04-25T13:21:58.542Z,99206.69
2023-04-25T13:25:34.593Z,99199.16
2023-04-25T13:28:56.399Z,99188.88
2023-04-25T13:32:13.524Z,99207.28
2023-04-25T13:35:41.461Z,99205.34
2023-04-25T13:39:10.206Z,99205.38
2023-04-25T13:42:26.239Z,99201.56
2023-04-25T13:45:42.265Z,99196.22
2023-04-25T13:49:06.150Z,99186.81
2023-04-25T13:52:39.757Z,99199.72
2023-04-25T13:55:57.328Z,99188.47
2023-04-25T13:59:19.557Z,99186.22
2023-04-25T14:02:38.682Z,99183.56
2023-04-25T14:05:53.442Z,99173.03
2023-04-25T14:09:08.313Z,99172.19
2023-04-25T14:12:23.935Z,99176.00
2023-04-25T14:15:38.332Z,99181.19
2023-04-25T14:18:52.617Z,99174.94
2023-04-25T14:22:07.125Z,99176.63
2023-04-25T14:25:30.517Z,99182.62
2023-04-25T14:28:46.374Z,99179.22
2023-04-25T14:32:00.596Z,99180.06
2023-04-25T14:35:14.881Z,99174.84
2023-04-25T14:38:29.098Z,99177.06
2023-04-25T14:41:43.343Z,99187.91
2023-04-25T14:44:58.921Z,99183.13
2023-04-25T14:48:13.295Z,99187.56
2023-04-25T14:51:28.033Z,99178.69
2023-04-25T14:54:42.270Z,99179.31
2023-04-25T14:57:57.578Z,99179.28
2023-04-25T15:01:14.230Z,99182.75
2023-04-25T15:04:28.799Z,99191.09
2023-04-25T15:07:43.431Z,99189.06
2023-04-25T15:10:57.560Z,99181.53
2023-04-25T15:14:11.951Z,99178.97
2023-04-25T15:17:28.017Z,99178.84
2023-04-25T15:20:42.230Z,99186.03
